createdAt,value
2018-11-04T00:00:47.820Z,101303.08
2018-11-04T00:03:18.145Z,101303.08
2018-11-04T00:05:48.193Z,101300.91
2018-11-04T00:08:18.457Z,101299.25
2018-11-04T00:10:48.913Z,101296.59
2018-11-04T00:13:19.591Z,101294.91
2018-11-04T00:15:50.249Z,101290.58
2018-11-04T00:18:20.649Z,101290.33
2018-11-04T00:20:51.052Z,101287.81
2018-11-04T00:23:22.123Z,101284.19
2018-11-04T00:25:52.514Z,101283.83
2018-11-04T00:28:22.988Z,101282.52
2018-11-04T00:30:53.374Z,101276.36
2018-11-04T00:33:23.907Z,101281.66
2018-11-04T00:35:54.150Z,101267.70
2018-11-04T00:38:24.547Z,101269.38
2018-11-04T00:40:55.029Z,101265.07
2018-11-04T00:43:25.349Z,101273.35
2018-11-04T00:45:56.113Z,101243.52
2018-11-04T00:48:26.715Z,101266.63
2018-11-04T00:50:57.121Z,101263.97
2018-11-04T00:53:27.373Z,101263.97
2018-11-04T00:55:57.550Z,101255.42
2018-11-04T00:58:28.161Z,101251.19
2018-11-04T01:00:58.426Z,101246.64
2018-11-04T01:03:28.280Z,101245.06
2018-11-04T01:05:58.682Z,101239.91
2018-11-04T01:08:29.179Z,101239.41
2018-11-04T01:10:59.846Z,101239.88
2018-11-04T01:13:30.635Z,101239.05
2018-11-04T01:16:00.675Z,101233.14
2018-11-04T01:18:31.475Z,101234.83
2018-11-04T01:21:03.362Z,101236.05
2018-11-04T01:23:33.828Z,101236.51
2018-11-04T01:26:06.258Z,101234.69
2018-11-04T01:28:36.421Z,101229.53
2018-11-04T01:31:06.437Z,101225.45
2018-11-04T01:33:36.526Z,101226.63
2018-11-04T01:36:06.840Z,101220.86
2018-11-04T01:38:36.883Z,101226.98
2018-11-04T01:41:07.349Z,101217.58
2018-11-04T01:43:37.588Z,101212.52
2018-11-04T01:46:07.870Z,101214.20
2018-11-04T01:48:37.997Z,101209.16
2018-11-04T01:51:08.055Z,101207.48
2018-11-04T01:53:37.990Z,101201.61
2018-11-04T01:56:08.511Z,101202.67
2018-11-04T01:58:38.839Z,101201.61
2018-11-04T02:01:08.987Z,101199.06
2018-11-04T02:03:39.141Z,101203.03
2018-11-04T02:06:09.108Z,101188.36
2018-11-04T02:08:39.021Z,101187.39
2018-11-04T02:11:08.881Z,101181.45
2018-11-04T02:13:38.601Z,101184.38
2018-11-04T02:16:08.792Z,101177.16
2018-11-04T02:18:38.667Z,101171.86
2018-11-04T02:21:09.150Z,101174.65
2018-11-04T02:23:39.149Z,101177.41
2018-11-04T02:26:09.397Z,101181.48
2018-11-04T02:28:39.924Z,101182.70
2018-11-04T02:31:10.087Z,101179.05
2018-11-04T02:33:39.930Z,101176.19
2018-11-04T02:36:10.087Z,101174.97
2018-11-04T02:38:41.018Z,101178.84
2018-11-04T02:41:11.115Z,101170.49
2018-11-04T02:43:41.107Z,101165.59
2018-11-04T02:46:11.311Z,101164.62
2018-11-04T02:48:41.409Z,101160.40
2018-11-04T02:51:11.636Z,101152.09
2018-11-04T02:53:41.831Z,101154.78
2018-11-04T02:56:11.891Z,101157.18
2018-11-04T02:58:42.179Z,101153.92
2018-11-04T03:01:12.317Z,101158.71
2018-11-04T03:03:43.473Z,101156.31
2018-11-04T03:06:13.512Z,101150.20
2018-11-04T03:08:43.619Z,101147.30
2018-11-04T03:11:13.771Z,101141.18
2018-11-04T03:13:43.862Z,101141.96
2018-11-04T03:16:14.021Z,101136.66
2018-11-04T03:18:44.034Z,101131.41
2018-11-04T03:21:14.568Z,101129.16
2018-11-04T03:23:44.993Z,101125.54
2018-11-04T03:26:15.457Z,101124.83
2018-11-04T03:28:45.702Z,101122.79
2018-11-04T03:31:16.035Z,101120.85
2018-11-04T03:33:46.074Z,101118.31
2018-11-04T03:36:16.074Z,101118.16
2018-11-04T03:38:46.300Z,101123.46
2018-11-04T03:41:16.406Z,101117.70
2018-11-04T03:43:47.086Z,101121.42
2018-11-04T03:46:16.959Z,101119.84
2018-11-04T03:48:47.112Z,101120.34
2018-11-04T03:51:17.181Z,101118.66
2018-11-04T03:53:47.552Z,101113.22
2018-11-04T03:56:18.353Z,101116.33
2018-11-04T03:58:48.891Z,101111.39
2018-11-04T04:01:19.318Z,101106.13
2018-11-04T04:03:49.550Z,101111.53
2018-11-04T04:06:20.357Z,101101.09
2018-11-04T04:08:51.027Z,101101.16
2018-11-04T04:11:21.138Z,101092.08
2018-11-04T04:13:51.271Z,101088.81
2018-11-04T04:16:21.291Z,101088.91
2018-11-04T04:18:51.814Z,101084.17
2018-11-04T04:21:22.673Z,101077.20
2018-11-04T04:23:53.237Z,101069.41
2018-11-04T04:26:24.269Z,101075.33
2018-11-04T04:28:55.681Z,101072.56
2018-11-04T04:31:26.251Z,101074.81
2018-11-04T04:33:57.377Z,101067.27
2018-11-04T04:36:27.326Z,101066.05
2018-11-04T04:38:58.772Z,101067.02
2018-11-04T04:41:29.366Z,101058.82
2018-11-04T04:44:01.601Z,101053.41
2018-11-04T04:46:31.934Z,101064.62
2018-11-04T04:49:02.690Z,101064.88
2018-11-04T04:51:33.330Z,101059.06
2018-11-04T04:54:04.377Z,101059.06
2018-11-04T04:56:35.243Z,101058.20
2018-11-04T04:59:06.313Z,101053.77
2018-11-04T05:01:37.384Z,101051.73
2018-11-04T05:04:11.018Z,101050.30
2018-11-04T05:06:40.849Z,101047.30
2018-11-04T05:09:10.772Z,101052.55
2018-11-04T05:11:41.759Z,101047.14
2018-11-04T05:14:12.426Z,101047.00
2018-11-04T05:16:43.320Z,101048.98
2018-11-04T05:19:14.295Z,101046.91
2018-11-04T05:21:45.225Z,101055.46
2018-11-04T05:24:16.275Z,101050.16
2018-11-04T05:26:47.338Z,101051.13
2018-11-04T05:29:18.218Z,101044.85
2018-11-04T05:31:49.431Z,101047.50
2018-11-04T05:34:20.147Z,101049.44
2018-11-04T05:36:51.842Z,101050.52
2018-11-04T05:39:23.589Z,101045.73
2018-11-04T05:41:53.738Z,101048.22
2018-11-04T05:44:24.326Z,101054.23
2018-11-04T05:46:55.649Z,101053.56
2018-11-04T05:49:26.364Z,101061.11
2018-11-04T05:51:58.444Z,101052.25
2018-11-04T05:54:28.390Z,101062.99
2018-11-04T05:56:59.378Z,101063.53
2018-11-04T05:59:30.151Z,101069.34
2018-11-04T06:02:01.823Z,101059.52
2018-11-04T06:04:32.653Z,101068.19
2018-11-04T06:07:03.725Z,101069.00
2018-11-04T06:09:34.452Z,101074.91
2018-11-04T06:12:05.689Z,101068.39
2018-11-04T06:14:35.704Z,101071.80
2018-11-04T06:17:06.793Z,101069.91
2018-11-04T06:19:37.705Z,101076.39
2018-11-04T06:22:08.592Z,101077.05
2018-11-04T06:24:39.384Z,101075.62
2018-11-04T06:27:10.924Z,101074.30
2018-11-04T06:29:41.481Z,101078.83
2018-11-04T06:32:12.668Z,101077.20
2018-11-04T06:34:43.627Z,101081.98
2018-11-04T06:37:14.745Z,101083.92
2018-11-04T06:39:45.458Z,101083.06
2018-11-04T06:42:16.482Z,101081.63
2018-11-04T06:44:47.311Z,101084.13
2018-11-04T06:47:18.591Z,101078.97
2018-11-04T06:49:49.278Z,101080.66
2018-11-04T06:52:21.387Z,101070.87
2018-11-04T06:54:51.260Z,101076.33
2018-11-04T06:57:22.705Z,101064.41
2018-11-04T06:59:53.722Z,101070.16
2018-11-04T07:02:24.849Z,101059.93
2018-11-04T07:04:55.738Z,101068.38
2018-11-04T07:07:26.779Z,101057.23
2018-11-04T07:09:57.658Z,101058.66
2018-11-04T07:12:29.074Z,101061.16
2018-11-04T07:14:59.760Z,101067.66
2018-11-04T07:17:30.709Z,101063.64
2018-11-04T07:20:01.845Z,101056.66
2018-11-04T07:22:32.874Z,101068.01
2018-11-04T07:25:03.710Z,101049.20
2018-11-04T07:27:34.511Z,101048.96
2018-11-04T07:30:06.129Z,101048.69
2018-11-04T07:32:36.446Z,101049.77
2018-11-04T07:35:09.921Z,101050.92
2018-11-04T07:37:40.946Z,101057.71
2018-11-04T07:40:11.534Z,101070.25
2018-11-04T07:42:42.038Z,101059.04
2018-11-04T07:45:11.840Z,101061.33
2018-11-04T07:47:43.128Z,101063.16
2018-11-04T07:50:15.469Z,101062.05
2018-11-04T07:52:46.055Z,101056.72
2018-11-04T07:55:15.988Z,101057.19
2018-11-04T07:57:46.777Z,101051.98
2018-11-04T08:00:17.887Z,101053.77
2018-11-04T08:02:48.679Z,101053.55
2018-11-04T08:05:19.482Z,101051.88
2018-11-04T08:07:50.467Z,101048.25
2018-11-04T08:10:21.116Z,101044.63
2018-11-04T08:12:52.464Z,101048.11
2018-11-04T08:15:23.232Z,101055.44
2018-11-04T08:17:54.342Z,101056.39
2018-11-04T08:20:25.345Z,101046.84
2018-11-04T08:22:56.539Z,101050.15
2018-11-04T08:25:27.177Z,101051.03
2018-11-04T08:27:58.138Z,101043.41
2018-11-04T08:30:29.536Z,101032.03
2018-11-04T08:33:00.193Z,101021.75
2018-11-04T08:35:31.196Z,101027.67
2018-11-04T08:38:02.574Z,101037.25
2018-11-04T08:40:44.262Z,101003.91
2018-11-04T08:43:14.234Z,101039.28
2018-11-04T08:45:44.091Z,101034.83
2018-11-04T08:48:14.234Z,101041.64
2018-11-04T08:50:44.071Z,101040.78
2018-11-04T08:53:14.131Z,101047.06
2018-11-04T08:55:44.084Z,101032.83
2018-11-04T08:58:13.972Z,101028.94
2018-11-04T09:00:44.003Z,101023.98
2018-11-04T09:03:14.155Z,101032.77
2018-11-04T09:05:44.204Z,101026.28
2018-11-04T09:08:14.258Z,101015.34
2018-11-04T09:10:45.074Z,101012.85
2018-11-04T09:13:16.573Z,101004.27
2018-11-04T09:15:47.222Z,101006.88
2018-11-04T09:18:18.202Z,100997.64
2018-11-04T09:20:49.090Z,100995.49
2018-11-04T09:23:20.532Z,100994.02
2018-11-04T09:25:51.106Z,101001.34
2018-11-04T09:28:22.545Z,100999.52
2018-11-04T09:30:53.206Z,100990.97
2018-11-04T09:33:24.228Z,100989.45
2018-11-04T09:35:55.273Z,100989.87
2018-11-04T09:38:26.169Z,100992.25
2018-11-04T09:40:57.040Z,100987.19
2018-11-04T09:43:28.451Z,100982.61
2018-11-04T09:45:59.065Z,100978.80
2018-11-04T09:48:30.309Z,100994.36
2018-11-04T09:51:00.970Z,100984.30
2018-11-04T09:53:32.398Z,100982.81
2018-11-04T09:56:02.930Z,100983.20
2018-11-04T09:58:34.361Z,100983.94
2018-11-04T10:01:04.896Z,100980.59
2018-11-04T10:03:36.441Z,100983.74
2018-11-04T10:06:06.951Z,100973.48
2018-11-04T10:08:38.465Z,100974.38
2018-11-04T10:11:08.997Z,100976.95
2018-11-04T10:13:40.378Z,100975.63
2018-11-04T10:16:11.329Z,100976.10
2018-11-04T10:18:42.356Z,100970.52
2018-11-04T10:21:13.324Z,100968.02
2018-11-04T10:23:44.061Z,100971.38
2018-11-04T10:26:15.213Z,100964.82
2018-11-04T10:28:46.456Z,100963.64
2018-11-04T10:31:16.257Z,100964.56
2018-11-04T10:33:47.082Z,100962.16
2018-11-04T10:36:18.599Z,100960.36
2018-11-04T10:38:49.483Z,100957.08
2018-11-04T10:41:19.989Z,100951.39
2018-11-04T10:43:52.211Z,100947.42
2018-11-04T10:46:21.979Z,100933.75
2018-11-04T10:48:53.405Z,100928.80
2018-11-04T10:51:23.946Z,100922.50
2018-11-04T10:53:55.553Z,100925.66
2018-11-04T10:56:26.026Z,100913.43
2018-11-04T10:58:57.250Z,100916.64
2018-11-04T11:01:28.011Z,100910.42
2018-11-04T11:03:59.572Z,100903.09
2018-11-04T11:06:29.987Z,100898.20
2018-11-04T11:09:01.561Z,100902.03
2018-11-04T11:11:32.025Z,100908.17
2018-11-04T11:14:03.415Z,100907.55
2018-11-04T11:16:33.927Z,100907.77
2018-11-04T11:19:05.498Z,100907.84
2018-11-04T11:21:36.025Z,100894.63
2018-11-04T11:24:07.535Z,100893.38
2018-11-04T11:26:38.147Z,100895.27
2018-11-04T11:29:09.117Z,100890.72
2018-11-04T11:31:40.258Z,100874.86
2018-11-04T11:34:11.325Z,100874.37
2018-11-04T11:36:42.125Z,100873.05
2018-11-04T11:39:14.515Z,100868.28
2018-11-04T11:41:44.712Z,100870.05
2018-11-04T11:44:15.433Z,100866.06
2018-11-04T11:46:46.210Z,100865.09
2018-11-04T11:49:17.374Z,100856.49
2018-11-04T11:51:47.975Z,100858.86
2018-11-04T11:54:19.589Z,100851.19
2018-11-04T11:56:50.036Z,100847.33
2018-11-04T11:59:22.070Z,100851.21
2018-11-04T12:01:52.039Z,100842.42
2018-11-04T12:04:23.420Z,100840.41
2018-11-04T12:06:53.994Z,100840.24
2018-11-04T12:09:25.674Z,100841.92
2018-11-04T12:11:56.753Z,100834.74
2018-11-04T12:14:27.346Z,100831.58
2018-11-04T12:16:57.986Z,100828.52
2018-11-04T12:19:29.592Z,100825.35
2018-11-04T12:22:00.100Z,100814.25
2018-11-04T12:24:31.539Z,100811.60
2018-11-04T12:27:02.073Z,100810.05
2018-11-04T12:29:33.598Z,100807.33
2018-11-04T12:32:04.528Z,100800.28
2018-11-04T12:34:35.097Z,100796.77
2018-11-04T12:37:06.001Z,100786.33
2018-11-04T12:39:37.438Z,100788.52
2018-11-04T12:42:08.078Z,100784.77
2018-11-04T12:44:39.460Z,100777.96
2018-11-04T12:47:10.145Z,100781.23
2018-11-04T12:49:41.181Z,100782.22
2018-11-04T12:52:12.083Z,100782.05
2018-11-04T12:54:43.269Z,100779.16
2018-11-04T12:57:13.899Z,100784.92
2018-11-04T12:59:45.442Z,100776.00
2018-11-04T13:02:15.973Z,100782.51
2018-11-04T13:04:47.472Z,100780.25
2018-11-04T13:07:17.944Z,100774.20
2018-11-04T13:09:49.487Z,100775.70
2018-11-04T13:12:19.977Z,100774.09
2018-11-04T13:14:51.557Z,100779.56
2018-11-04T13:17:22.032Z,100777.02
2018-11-04T13:19:53.417Z,100778.73
2018-11-04T13:22:24.017Z,100781.12
2018-11-04T13:24:55.443Z,100778.63
2018-11-04T13:27:26.016Z,100783.73
2018-11-04T13:29:57.658Z,100779.11
2018-11-04T13:32:28.250Z,100757.62
2018-11-04T13:34:59.215Z,100776.95
2018-11-04T13:37:30.053Z,100757.73
2018-11-04T13:40:01.437Z,100761.08
2018-11-04T13:42:32.132Z,100758.95
2018-11-04T13:45:03.228Z,100756.45
2018-11-04T13:47:34.060Z,100763.14
2018-11-04T13:50:05.833Z,100757.27
2018-11-04T13:52:36.291Z,100754.38
2018-11-04T13:55:07.746Z,100748.78
2018-11-04T13:57:38.552Z,100760.57
2018-11-04T14:00:13.270Z,100761.12
2018-11-04T14:02:44.316Z,100751.78
2018-11-04T14:05:15.012Z,100757.14
2018-11-04T14:07:44.785Z,100748.91
2018-11-04T14:10:16.456Z,100741.55
2018-11-04T14:12:46.773Z,100737.98
2018-11-04T14:15:17.422Z,100736.62
2018-11-04T14:17:47.825Z,100734.56
2018-11-04T14:20:17.849Z,100735.09
2018-11-04T14:22:48.453Z,100735.80
2018-11-04T14:25:19.009Z,100729.79
2018-11-04T14:27:50.640Z,100722.41
2018-11-04T14:30:21.223Z,100722.25
2018-11-04T14:32:52.098Z,100721.33
2018-11-04T14:35:23.362Z,100723.81
2018-11-04T14:37:54.440Z,100724.31
2018-11-04T14:40:25.015Z,100720.34
2018-11-04T14:42:56.763Z,100717.00
2018-11-04T14:45:27.485Z,100716.25
2018-11-04T14:47:58.861Z,100725.41
2018-11-04T14:50:29.462Z,100713.41
2018-11-04T14:53:00.373Z,100709.72
2018-11-04T14:55:31.182Z,100697.80
2018-11-04T14:58:02.284Z,100707.25
2018-11-04T15:00:36.577Z,100708.09
2018-11-04T15:03:08.677Z,100704.80
2018-11-04T15:05:39.151Z,100710.11
2018-11-04T15:08:10.119Z,100705.92
2018-11-04T15:10:41.104Z,100707.86
2018-11-04T15:13:11.202Z,100704.12
2018-11-04T15:15:41.056Z,100696.15
2018-11-04T15:18:11.151Z,100696.28
2018-11-04T15:20:42.494Z,100696.81
2018-11-04T15:23:12.602Z,100696.00
2018-11-04T15:25:43.523Z,100696.79
2018-11-04T15:28:14.145Z,100695.36
2018-11-04T15:30:45.419Z,100696.09
2018-11-04T15:33:16.181Z,100704.65
2018-11-04T15:35:47.800Z,100706.51
2018-11-04T15:38:18.470Z,100704.73
2018-11-04T15:40:49.392Z,100703.27
2018-11-04T15:43:21.101Z,100705.17
2018-11-04T15:45:51.183Z,100697.33
2018-11-04T15:48:22.074Z,100695.30
2018-11-04T15:50:54.322Z,100695.78
2018-11-04T15:53:24.487Z,100698.09
2018-11-04T15:55:55.502Z,100701.25
2018-11-04T15:58:26.126Z,100700.45
2018-11-04T16:00:57.245Z,100708.07
2018-11-04T16:03:28.850Z,100704.89
2018-11-04T16:05:59.972Z,100701.02
2018-11-04T16:08:30.959Z,100703.72
2018-11-04T16:11:01.895Z,100701.41
2018-11-04T16:13:32.425Z,100693.39
2018-11-04T16:16:03.420Z,100687.44
2018-11-04T16:18:34.103Z,100687.69
2018-11-04T16:21:05.336Z,100690.09
2018-11-04T16:23:36.262Z,100698.38
2018-11-04T16:26:07.337Z,100701.30
2018-11-04T16:28:38.069Z,100700.96
2018-11-04T16:31:09.626Z,100699.82
2018-11-04T16:33:40.572Z,100702.36
2018-11-04T16:36:11.460Z,100700.22
2018-11-04T16:38:42.194Z,100701.78
2018-11-04T16:41:13.505Z,100704.63
2018-11-04T16:43:44.465Z,100705.77
2018-11-04T16:46:15.651Z,100702.25
2018-11-04T16:48:46.401Z,100687.66
2018-11-04T16:51:17.256Z,100695.14
2018-11-04T16:53:48.190Z,100695.09
2018-11-04T16:56:19.821Z,100698.31
2018-11-04T16:58:50.492Z,100690.34
2018-11-04T17:01:21.409Z,100694.21
2018-11-04T17:03:52.300Z,100696.88
2018-11-04T17:06:23.476Z,100697.56
2018-11-04T17:08:56.140Z,100703.91
2018-11-04T17:11:26.548Z,100694.33
2018-11-04T17:13:56.865Z,100694.74
2018-11-04T17:16:27.857Z,100696.98
2018-11-04T17:18:58.731Z,100694.67
2018-11-04T17:21:31.225Z,100695.36
2018-11-04T17:24:02.410Z,100689.83
2018-11-04T17:26:34.319Z,100684.52
2018-11-04T17:29:09.416Z,100682.56
2018-11-04T17:31:41.620Z,100684.98
2018-11-04T17:34:13.723Z,100681.42
2018-11-04T17:36:46.045Z,100682.27
2018-11-04T17:39:17.614Z,100681.17
2018-11-04T17:41:49.806Z,100678.98
2018-11-04T17:44:21.780Z,100679.38
2018-11-04T17:46:54.087Z,100671.55
2018-11-04T17:49:26.714Z,100674.06
2018-11-04T17:51:59.895Z,100675.69
2018-11-04T17:54:31.714Z,100675.98
2018-11-04T17:57:03.250Z,100682.67
2018-11-04T17:59:35.287Z,100677.41
2018-11-04T18:02:06.680Z,100680.06
2018-11-04T18:04:39.774Z,100679.67
2018-11-04T18:07:11.201Z,100674.41
2018-11-04T18:09:42.500Z,100677.70
2018-11-04T18:12:14.151Z,100676.80
2018-11-04T18:14:46.257Z,100678.30
2018-11-04T18:17:18.400Z,100678.82
2018-11-04T18:19:49.716Z,100676.27
2018-11-04T18:22:21.536Z,100675.80
2018-11-04T18:24:53.247Z,100686.70
2018-11-04T18:27:26.255Z,100684.98
2018-11-04T18:29:59.323Z,100693.00
2018-11-04T18:32:32.192Z,100696.00
2018-11-04T18:35:05.244Z,100680.36
2018-11-04T18:37:37.171Z,100696.98
2018-11-04T18:40:12.407Z,100683.84
2018-11-04T18:42:46.022Z,100689.36
2018-11-04T18:45:18.601Z,100692.41
2018-11-04T18:47:51.493Z,100687.05
2018-11-04T18:50:24.613Z,100684.23
2018-11-04T18:52:56.829Z,100678.92
2018-11-04T18:55:29.353Z,100681.87
2018-11-04T18:58:02.182Z,100679.43
2018-11-04T19:00:35.613Z,100682.03
2018-11-04T19:03:09.317Z,100674.52
2018-11-04T19:05:43.149Z,100670.48
2018-11-04T19:08:16.328Z,100668.52
2018-11-04T19:10:48.893Z,100672.05
2018-11-04T19:13:20.968Z,100674.36
2018-11-04T19:15:54.514Z,100673.09
2018-11-04T19:18:26.791Z,100643.28
2018-11-04T19:20:58.880Z,100669.69
2018-11-04T19:23:30.724Z,100665.36
2018-11-04T19:26:02.508Z,100665.31
2018-11-04T19:28:35.080Z,100659.41
2018-11-04T19:31:06.179Z,100660.13
2018-11-04T19:33:37.866Z,100663.69
2018-11-04T19:36:09.612Z,100660.64
2018-11-04T19:38:40.732Z,100651.94
2018-11-04T19:41:12.578Z,100657.00
2018-11-04T19:43:44.575Z,100655.70
2018-11-04T19:46:16.052Z,100655.28
2018-11-04T19:48:48.185Z,100653.26
2018-11-04T19:51:19.677Z,100653.08
2018-11-04T19:53:51.392Z,100651.45
2018-11-04T19:56:23.524Z,100651.05
2018-11-04T19:58:55.193Z,100647.57
2018-11-04T20:01:27.490Z,100650.81
2018-11-04T20:04:06.218Z,100646.19
2018-11-04T20:06:38.035Z,100644.13
2018-11-04T20:09:15.674Z,100643.34
2018-11-04T20:11:48.312Z,100639.90
2018-11-04T20:14:23.227Z,100636.34
2018-11-04T20:16:56.195Z,100643.72
2018-11-04T20:19:33.248Z,100642.61
2018-11-04T20:22:05.881Z,100636.27
2018-11-04T20:24:41.993Z,100637.88
2018-11-04T20:27:13.521Z,100629.55
2018-11-04T20:29:45.214Z,100635.38
2018-11-04T20:32:21.553Z,100632.06
2018-11-04T20:34:52.878Z,100633.85
2018-11-04T20:37:24.039Z,100635.23
2018-11-04T20:39:59.951Z,100634.30
2018-11-04T20:42:31.655Z,100644.81
2018-11-04T20:45:03.606Z,100645.45
2018-11-04T20:47:39.419Z,100636.27
2018-11-04T20:50:15.026Z,100641.31
2018-11-04T20:52:45.056Z,100639.85
2018-11-04T20:55:15.101Z,100635.87
2018-11-04T20:57:48.099Z,100631.86
2018-11-04T21:00:18.320Z,100627.11
2018-11-04T21:02:48.282Z,100635.03
2018-11-04T21:05:18.189Z,100629.28
2018-11-04T21:07:48.083Z,100635.23
2018-11-04T21:10:19.752Z,100627.66
2018-11-04T21:12:49.559Z,100627.02
2018-11-04T21:15:19.650Z,100621.32
2018-11-04T21:17:49.661Z,100613.99
2018-11-04T21:20:19.945Z,100604.27
2018-11-04T21:22:49.968Z,100614.53
2018-11-04T21:25:20.200Z,100615.61
2018-11-04T21:27:50.646Z,100611.22
2018-11-04T21:30:20.907Z,100614.77
2018-11-04T21:32:51.042Z,100612.03
2018-11-04T21:35:20.981Z,100613.95
2018-11-04T21:37:50.972Z,100615.11
2018-11-04T21:40:21.202Z,100617.58
2018-11-04T21:42:51.266Z,100620.78
2018-11-04T21:45:21.281Z,100618.27
2018-11-04T21:47:51.200Z,100615.02
2018-11-04T21:50:21.058Z,100621.56
2018-11-04T21:52:50.896Z,100625.04
2018-11-04T21:55:20.988Z,100620.53
2018-11-04T21:57:50.899Z,100623.37
2018-11-04T22:00:20.874Z,100620.95
2018-11-04T22:02:50.740Z,100613.69
2018-11-04T22:05:20.771Z,100610.93
2018-11-04T22:07:54.081Z,100604.61
2018-11-04T22:10:24.005Z,100608.54
2018-11-04T22:12:53.752Z,100615.02
2018-11-04T22:15:23.597Z,100616.98
2018-11-04T22:17:53.577Z,100610.51
2018-11-04T22:20:23.532Z,100611.38
2018-11-04T22:22:53.677Z,100606.18
2018-11-04T22:25:23.566Z,100602.15
2018-11-04T22:27:53.625Z,100605.38
2018-11-04T22:30:23.746Z,100612.12
2018-11-04T22:32:55.568Z,100613.75
2018-11-04T22:35:25.817Z,100614.14
2018-11-04T22:37:55.573Z,100606.28
2018-11-04T22:40:25.601Z,100609.63
2018-11-04T22:42:55.560Z,100601.98
2018-11-04T22:45:25.502Z,100615.08
2018-11-04T22:47:55.890Z,100608.05
2018-11-04T22:50:25.678Z,100607.88
2018-11-04T22:52:55.620Z,100595.65
2018-11-04T22:55:26.064Z,100603.42
2018-11-04T22:57:59.779Z,100608.44
2018-11-04T23:00:34.834Z,100597.58
2018-11-04T23:03:04.614Z,100607.64
2018-11-04T23:05:34.681Z,100607.22
2018-11-04T23:08:05.108Z,100611.19
2018-11-04T23:10:34.997Z,100601.56
2018-11-04T23:13:05.092Z,100596.94
2018-11-04T23:15:34.893Z,100599.33
2018-11-04T23:18:04.724Z,100599.20
2018-11-04T23:20:34.617Z,100606.55
2018-11-04T23:23:04.708Z,100601.06
2018-11-04T23:25:34.787Z,100587.05
2018-11-04T23:28:04.539Z,100591.78
2018-11-04T23:30:34.706Z,100588.14
2018-11-04T23:33:04.732Z,100579.25
2018-11-04T23:35:34.580Z,100582.54
2018-11-04T23:38:04.672Z,100579.30
2018-11-04T23:40:34.965Z,100581.22
2018-11-04T23:43:04.918Z,100588.96
2018-11-04T23:45:34.740Z,100579.97
2018-11-04T23:48:04.561Z,100583.13
2018-11-04T23:50:35.433Z,100576.92
2018-11-04T23:53:05.637Z,100580.27
2018-11-04T23:55:35.847Z,100570.23
2018-11-04T23:58:05.778Z,100572.70
